createdAt,value
2018-08-14T00:00:38.435Z,19.02
2018-08-14T00:01:38.326Z,19.07
2018-08-14T00:02:38.262Z,18.96
2018-08-14T00:03:38.185Z,19.09
2018-08-14T00:04:38.103Z,19.09
2018-08-14T00:05:38.054Z,19.01
2018-08-14T00:06:37.950Z,19.02
2018-08-14T00:07:37.862Z,18.99
2018-08-14T00:08:37.806Z,18.96
2018-08-14T00:09:37.706Z,18.97
2018-08-14T00:10:38.667Z,18.97
2018-08-14T00:11:37.561Z,18.94
2018-08-14T00:12:37.476Z,18.94
2018-08-14T00:13:37.379Z,18.93
2018-08-14T00:14:37.317Z,19.01
2018-08-14T00:15:37.252Z,18.91
2018-08-14T00:16:37.166Z,18.96
2018-08-14T00:17:37.087Z,18.96
2018-08-14T00:18:36.998Z,18.93
2018-08-14T00:19:36.917Z,18.96
2018-08-14T00:20:36.943Z,18.99
2018-08-14T00:21:36.770Z,18.96
2018-08-14T00:22:36.717Z,18.93
2018-08-14T00:23:36.594Z,18.91
2018-08-14T00:26:18.473Z,18.93
2018-08-14T00:27:18.373Z,18.93
2018-08-14T00:28:18.284Z,19.09
2018-08-14T00:29:18.220Z,18.99
2018-08-14T00:30:18.132Z,19.01
2018-08-14T00:31:18.079Z,18.99
2018-08-14T00:32:17.999Z,18.94
2018-08-14T00:33:17.905Z,18.94
2018-08-14T00:34:17.821Z,18.96
2018-08-14T00:35:17.792Z,18.99
2018-08-14T00:36:17.680Z,18.91
2018-08-14T00:37:17.579Z,18.86
2018-08-14T00:38:17.511Z,18.87
2018-08-14T00:40:59.474Z,18.84
2018-08-14T00:41:59.403Z,18.82
2018-08-14T00:42:59.299Z,18.91
2018-08-14T00:45:41.468Z,18.83
2018-08-14T00:46:41.405Z,18.89
2018-08-14T00:47:41.311Z,18.87
2018-08-14T00:48:41.231Z,18.90
2018-08-14T00:49:41.134Z,18.83
2018-08-14T00:50:41.111Z,18.87
2018-08-14T00:51:41.017Z,18.78
2018-08-14T00:52:40.938Z,18.84
2018-08-14T00:53:40.833Z,18.89
2018-08-14T00:54:40.753Z,18.87
2018-08-14T00:55:40.677Z,18.87
2018-08-14T00:56:40.620Z,18.86
2018-08-14T00:57:40.540Z,18.93
2018-08-14T00:58:40.452Z,18.78
2018-08-14T00:59:40.386Z,18.83
2018-08-14T01:00:40.281Z,18.89
2018-08-14T01:01:40.187Z,18.82
2018-08-14T01:02:40.154Z,18.87
2018-08-14T01:03:40.041Z,18.87
2018-08-14T01:04:39.961Z,18.93
2018-08-14T01:05:39.876Z,18.93
2018-08-14T01:06:39.825Z,19.02
2018-08-14T01:07:39.740Z,18.97
2018-08-14T01:08:39.666Z,18.93
2018-08-14T01:09:39.549Z,18.96
2018-08-14T01:12:21.477Z,19.02
2018-08-14T01:13:21.416Z,18.93
2018-08-14T01:14:21.375Z,19.01
2018-08-14T01:15:21.228Z,18.94
2018-08-14T01:16:21.144Z,19.02
2018-08-14T01:17:21.071Z,18.99
2018-08-14T01:18:21.010Z,18.96
2018-08-14T01:19:20.915Z,18.97
2018-08-14T01:20:20.830Z,18.99
2018-08-14T01:21:20.889Z,18.99
2018-08-14T01:22:20.676Z,18.96
2018-08-14T01:23:20.630Z,18.99
2018-08-14T01:24:20.523Z,19.05
2018-08-14T01:25:20.439Z,18.94
2018-08-14T01:26:20.405Z,18.96
2018-08-14T01:27:20.286Z,18.93
2018-08-14T01:28:20.219Z,18.96
2018-08-14T01:29:20.120Z,18.99
2018-08-14T01:30:20.038Z,18.96
2018-08-14T01:31:19.976Z,19.05
2018-08-14T01:32:19.887Z,18.94
2018-08-14T01:33:19.842Z,18.99
2018-08-14T01:34:19.739Z,18.94
2018-08-14T01:35:19.654Z,19.01
2018-08-14T01:36:19.569Z,18.93
2018-08-14T01:37:19.492Z,18.99
2018-08-14T01:38:19.538Z,19.02
2018-08-14T01:39:19.356Z,18.90
2018-08-14T01:40:19.245Z,18.90
2018-08-14T01:41:19.180Z,18.86
2018-08-14T01:42:19.099Z,18.87
2018-08-14T01:43:19.014Z,18.99
2018-08-14T01:44:18.965Z,18.91
2018-08-14T01:47:00.981Z,19.01
2018-08-14T01:48:00.922Z,18.87
2018-08-14T01:49:00.846Z,18.89
2018-08-14T01:50:00.750Z,18.87
2018-08-14T01:51:00.649Z,18.82
2018-08-14T01:52:00.591Z,18.83
2018-08-14T01:53:00.498Z,18.90
2018-08-14T01:54:00.442Z,18.86
2018-08-14T01:55:00.353Z,18.89
2018-08-14T01:56:00.288Z,18.83
2018-08-14T01:57:00.198Z,18.90
2018-08-14T01:58:00.114Z,18.91
2018-08-14T01:59:00.053Z,18.89
2018-08-14T02:00:00.153Z,18.90
2018-08-14T02:00:59.865Z,18.89
2018-08-14T02:03:41.982Z,18.89
2018-08-14T02:04:43.116Z,18.94
2018-08-14T02:05:41.816Z,19.05
2018-08-14T02:06:41.770Z,18.91
2018-08-14T02:07:41.654Z,18.90
2018-08-14T02:08:41.599Z,18.93
2018-08-14T02:09:41.688Z,18.89
2018-08-14T02:10:41.427Z,18.97
2018-08-14T02:11:41.336Z,18.99
2018-08-14T02:12:41.266Z,18.97
2018-08-14T02:13:41.191Z,18.99
2018-08-14T02:14:41.165Z,19.07
2018-08-14T02:15:41.069Z,18.89
2018-08-14T02:16:40.979Z,18.96
2018-08-14T02:17:40.872Z,18.90
2018-08-14T02:18:40.815Z,18.93
2018-08-14T02:19:40.718Z,18.93
2018-08-14T02:20:40.659Z,18.93
2018-08-14T02:21:40.598Z,19.05
2018-08-14T02:22:40.482Z,18.97
2018-08-14T02:23:40.397Z,19.07
2018-08-14T02:24:40.322Z,18.99
2018-08-14T02:25:40.283Z,18.96
2018-08-14T02:26:40.170Z,18.99
2018-08-14T02:27:40.089Z,19.01
2018-08-14T02:28:40.014Z,18.96
2018-08-14T02:29:39.921Z,18.93
2018-08-14T02:30:39.876Z,19.05
2018-08-14T02:31:39.763Z,19.01
2018-08-14T02:34:21.990Z,19.02
2018-08-14T02:35:21.928Z,18.91
2018-08-14T02:36:21.852Z,18.96
2018-08-14T02:37:21.749Z,18.90
2018-08-14T02:38:21.681Z,18.89
2018-08-14T02:41:03.514Z,18.86
2018-08-14T02:42:03.431Z,18.89
2018-08-14T02:43:03.333Z,18.86
2018-08-14T02:45:45.562Z,18.89
2018-08-14T02:46:45.444Z,18.91
2018-08-14T02:47:45.352Z,18.90
2018-08-14T02:48:45.255Z,18.89
2018-08-14T02:49:45.179Z,18.91
2018-08-14T02:50:45.105Z,18.90
2018-08-14T02:51:45.040Z,18.99
2018-08-14T02:52:45.003Z,18.91
2018-08-14T02:53:44.859Z,18.93
2018-08-14T02:54:44.783Z,18.96
2018-08-14T02:55:44.706Z,18.93
2018-08-14T02:56:44.664Z,18.91
2018-08-14T02:57:44.648Z,18.78
2018-08-14T02:58:44.475Z,18.87
2018-08-14T02:59:44.409Z,18.84
2018-08-14T03:00:44.316Z,18.93
2018-08-14T03:01:44.222Z,18.83
2018-08-14T03:02:44.186Z,18.87
2018-08-14T03:03:44.063Z,18.84
2018-08-14T03:04:44.113Z,18.84
2018-08-14T03:05:43.929Z,18.84
2018-08-14T03:06:43.837Z,18.82
2018-08-14T03:07:43.770Z,18.87
2018-08-14T03:08:43.676Z,18.87
2018-08-14T03:09:43.743Z,18.83
2018-08-14T03:10:43.531Z,18.86
2018-08-14T03:11:43.431Z,18.83
2018-08-14T03:12:44.383Z,18.83
2018-08-14T03:13:43.281Z,18.84
2018-08-14T03:14:43.212Z,18.87
2018-08-14T03:15:43.131Z,18.82
2018-08-14T03:16:43.189Z,18.79
2018-08-14T03:17:42.986Z,18.84
2018-08-14T03:18:42.894Z,18.79
2018-08-14T03:19:42.819Z,18.83
2018-08-14T03:20:42.776Z,18.84
2018-08-14T03:21:42.661Z,18.87
2018-08-14T03:22:42.572Z,18.75
2018-08-14T03:23:42.501Z,18.78
2018-08-14T03:24:42.409Z,18.78
2018-08-14T03:25:42.345Z,18.76
2018-08-14T03:26:42.307Z,18.76
2018-08-14T03:27:42.228Z,18.75
2018-08-14T03:28:42.139Z,18.75
2018-08-14T03:29:42.038Z,18.76
2018-08-14T03:30:41.933Z,18.75
2018-08-14T03:31:41.863Z,18.75
2018-08-14T03:32:41.787Z,18.79
2018-08-14T03:33:41.909Z,18.76
2018-08-14T03:34:41.649Z,18.78
2018-08-14T03:35:41.540Z,18.74
2018-08-14T03:36:41.467Z,18.79
2018-08-14T03:37:41.373Z,18.78
2018-08-14T03:38:41.327Z,18.76
2018-08-14T03:39:41.217Z,18.86
2018-08-14T03:40:41.162Z,18.87
2018-08-14T03:41:41.064Z,18.82
2018-08-14T03:44:23.046Z,18.69
2018-08-14T03:47:05.013Z,18.79
2018-08-14T03:48:04.941Z,18.78
2018-08-14T03:49:04.888Z,18.74
2018-08-14T03:50:04.772Z,18.66
2018-08-14T03:51:04.692Z,18.65
2018-08-14T03:52:04.629Z,18.71
2018-08-14T03:53:04.539Z,18.69
2018-08-14T03:54:04.468Z,18.72
2018-08-14T03:55:04.402Z,18.72
2018-08-14T03:56:04.298Z,18.72
2018-08-14T03:57:04.207Z,18.76
2018-08-14T03:58:04.257Z,18.74
2018-08-14T03:59:04.054Z,18.76
2018-08-14T04:00:05.023Z,18.76
2018-08-14T04:01:03.900Z,18.79
2018-08-14T04:03:46.001Z,18.78
2018-08-14T04:04:45.978Z,18.78
2018-08-14T04:05:45.857Z,18.76
2018-08-14T04:06:45.802Z,18.75
2018-08-14T04:07:45.800Z,18.75
2018-08-14T04:08:45.627Z,18.69
2018-08-14T04:09:45.580Z,18.69
2018-08-14T04:12:27.520Z,18.75
2018-08-14T04:13:27.450Z,18.75
2018-08-14T04:14:27.360Z,18.76
2018-08-14T04:15:27.299Z,18.82
2018-08-14T04:16:27.208Z,18.76
2018-08-14T04:17:27.142Z,18.82
2018-08-14T04:18:27.037Z,18.84
2018-08-14T04:21:09.049Z,18.79
2018-08-14T04:23:51.018Z,18.82
2018-08-14T04:24:50.966Z,18.76
2018-08-14T04:25:50.859Z,18.78
2018-08-14T04:26:50.890Z,18.74
2018-08-14T04:27:50.698Z,18.76
2018-08-14T04:30:32.525Z,18.83
2018-08-14T04:31:33.472Z,18.83
2018-08-14T04:32:32.357Z,18.83
2018-08-14T04:33:32.297Z,18.82
2018-08-14T04:34:32.197Z,18.84
2018-08-14T04:35:32.240Z,18.82
2018-08-14T04:36:32.075Z,18.82
2018-08-14T04:37:31.976Z,18.74
2018-08-14T04:38:31.911Z,18.76
2018-08-14T04:41:14.041Z,18.75
2018-08-14T04:42:13.982Z,18.74
2018-08-14T04:43:13.863Z,18.83
2018-08-14T04:44:13.794Z,18.83
2018-08-14T04:45:13.722Z,18.79
2018-08-14T04:46:13.636Z,18.78
2018-08-14T04:47:13.563Z,18.68
2018-08-14T04:48:13.485Z,18.74
2018-08-14T04:49:13.399Z,18.75
2018-08-14T04:50:13.324Z,18.68
2018-08-14T04:51:13.240Z,18.62
2018-08-14T04:52:13.191Z,18.64
2018-08-14T04:53:13.068Z,18.64
2018-08-14T04:54:12.996Z,18.62
2018-08-14T04:55:12.931Z,18.69
2018-08-14T04:57:55.073Z,18.69
2018-08-14T04:58:54.972Z,18.65
2018-08-14T04:59:54.864Z,18.64
2018-08-14T05:02:37.025Z,18.71
2018-08-14T05:03:36.974Z,18.71
2018-08-14T05:04:36.898Z,18.72
2018-08-14T05:05:36.800Z,18.72
2018-08-14T05:06:36.717Z,18.75
2018-08-14T05:07:37.759Z,18.71
2018-08-14T05:08:36.552Z,18.76
2018-08-14T05:09:36.483Z,18.72
2018-08-14T05:10:36.395Z,18.75
2018-08-14T05:11:36.333Z,18.69
2018-08-14T05:12:36.262Z,18.64
2018-08-14T05:13:36.222Z,18.54
2018-08-14T05:14:36.117Z,18.71
2018-08-14T05:15:36.001Z,18.71
2018-08-14T05:16:35.919Z,18.59
2018-08-14T05:17:35.844Z,18.59
2018-08-14T05:18:35.828Z,18.65
2018-08-14T05:19:35.691Z,18.53
2018-08-14T05:20:35.623Z,18.56
2018-08-14T05:21:35.548Z,18.57
2018-08-14T05:22:35.442Z,18.44
2018-08-14T05:23:35.416Z,18.57
2018-08-14T05:24:35.297Z,18.54
2018-08-14T05:25:35.230Z,18.50
2018-08-14T05:26:35.144Z,18.41
2018-08-14T05:27:35.056Z,18.51
2018-08-14T05:28:34.994Z,18.41
2018-08-14T05:31:17.034Z,18.41
2018-08-14T05:33:59.063Z,18.51
2018-08-14T05:34:58.963Z,18.42
2018-08-14T05:35:58.890Z,18.46
2018-08-14T05:38:41.078Z,18.42
2018-08-14T05:41:23.063Z,18.31
2018-08-14T05:44:05.038Z,18.34
2018-08-14T05:45:04.994Z,18.32
2018-08-14T05:46:04.877Z,18.23
2018-08-14T05:47:04.808Z,18.31
2018-08-14T05:48:04.724Z,18.34
2018-08-14T05:49:04.661Z,18.25
2018-08-14T05:50:04.645Z,18.23
2018-08-14T05:51:04.517Z,18.26
2018-08-14T05:52:04.402Z,18.29
2018-08-14T05:53:04.399Z,18.23
2018-08-14T05:54:04.240Z,18.20
2018-08-14T05:55:04.167Z,18.11
2018-08-14T05:56:04.119Z,18.13
2018-08-14T05:57:04.030Z,18.21
2018-08-14T05:58:03.937Z,18.16
2018-08-14T05:59:03.864Z,18.23
2018-08-14T06:00:03.790Z,18.21
2018-08-14T06:01:04.733Z,18.34
2018-08-14T06:02:03.623Z,18.34
2018-08-14T06:03:03.536Z,18.28
2018-08-14T06:04:03.487Z,18.34
2018-08-14T06:05:03.398Z,18.20
2018-08-14T06:06:03.311Z,18.21
2018-08-14T06:07:03.249Z,18.25
2018-08-14T06:08:03.144Z,18.29
2018-08-14T06:09:03.067Z,18.21
2018-08-14T06:10:02.998Z,18.26
2018-08-14T06:12:45.083Z,18.42
2018-08-14T06:15:27.055Z,18.41
2018-08-14T06:16:27.047Z,18.42
2018-08-14T06:17:26.890Z,18.44
2018-08-14T06:20:09.064Z,18.47
2018-08-14T06:21:08.987Z,18.44
2018-08-14T06:22:08.921Z,18.51
2018-08-14T06:23:08.835Z,18.41
2018-08-14T06:24:08.737Z,18.50
2018-08-14T06:26:50.656Z,18.59
2018-08-14T06:27:50.893Z,18.59
2018-08-14T06:28:50.393Z,18.64
2018-08-14T06:29:50.321Z,18.64
2018-08-14T06:30:50.238Z,18.66
2018-08-14T06:31:50.189Z,18.68
2018-08-14T06:32:50.096Z,18.65
2018-08-14T06:33:50.006Z,18.65
2018-08-14T06:34:49.917Z,18.71
2018-08-14T06:35:49.847Z,18.69
2018-08-14T06:36:49.792Z,18.60
2018-08-14T06:37:49.698Z,18.65
2018-08-14T06:38:49.602Z,18.62
2018-08-14T06:39:49.536Z,18.60
2018-08-14T06:40:49.453Z,18.68
2018-08-14T06:41:49.410Z,18.74
2018-08-14T06:42:49.331Z,18.71
2018-08-14T06:43:49.262Z,18.78
2018-08-14T06:44:49.130Z,18.74
2018-08-14T06:47:31.056Z,18.78
2018-08-14T06:48:32.073Z,18.82
2018-08-14T06:49:30.893Z,18.86
2018-08-14T06:52:13.055Z,18.90
2018-08-14T06:53:13.003Z,18.94
2018-08-14T06:54:12.942Z,18.96
2018-08-14T06:55:12.842Z,19.05
2018-08-14T06:56:12.743Z,19.20
2018-08-14T06:58:54.571Z,19.17
2018-08-14T06:59:55.516Z,19.24
2018-08-14T07:00:54.416Z,19.25
2018-08-14T07:01:54.333Z,19.10
2018-08-14T07:02:54.248Z,19.17
2018-08-14T07:05:36.088Z,19.25
2018-08-14T07:06:36.035Z,19.23
2018-08-14T07:07:35.906Z,19.32
2018-08-14T07:08:37.863Z,19.39
2018-08-14T07:09:35.781Z,19.43
2018-08-14T07:10:35.722Z,19.50
2018-08-14T07:11:35.646Z,19.57
2018-08-14T07:12:35.526Z,19.58
2018-08-14T07:13:35.438Z,19.45
2018-08-14T07:14:35.374Z,19.40
2018-08-14T07:15:35.280Z,19.43
2018-08-14T07:16:35.273Z,19.49
2018-08-14T07:17:35.136Z,19.55
2018-08-14T07:20:17.134Z,19.43
2018-08-14T07:21:17.005Z,19.50
2018-08-14T07:22:16.994Z,19.50
2018-08-14T07:23:17.594Z,19.61
2018-08-14T07:24:16.800Z,19.47
2018-08-14T07:25:16.696Z,19.46
2018-08-14T07:26:16.612Z,19.58
2018-08-14T07:27:16.517Z,19.55
2018-08-14T07:28:16.479Z,19.53
2018-08-14T07:29:16.390Z,19.55
2018-08-14T07:30:16.329Z,19.52
2018-08-14T07:31:16.219Z,19.46
2018-08-14T07:32:16.145Z,19.35
2018-08-14T07:33:16.061Z,19.40
2018-08-14T07:34:16.009Z,19.35
2018-08-14T07:35:15.906Z,19.38
2018-08-14T07:36:15.846Z,19.32
2018-08-14T07:37:15.741Z,19.35
2018-08-14T07:38:15.659Z,19.43
2018-08-14T07:39:15.583Z,19.52
2018-08-14T07:40:15.537Z,19.55
2018-08-14T07:41:15.466Z,19.49
2018-08-14T07:42:15.345Z,19.47
2018-08-14T07:43:15.303Z,19.45
2018-08-14T07:44:15.212Z,19.46
2018-08-14T07:45:15.115Z,19.34
2018-08-14T07:46:15.054Z,19.43
2018-08-14T07:47:14.958Z,19.47
2018-08-14T07:48:14.863Z,19.57
2018-08-14T07:49:14.796Z,19.47
2018-08-14T07:50:14.749Z,19.52
2018-08-14T07:51:14.630Z,19.61
2018-08-14T07:52:14.576Z,19.70
2018-08-14T07:53:14.491Z,19.76
2018-08-14T07:54:14.401Z,19.80
2018-08-14T07:55:14.369Z,19.82
2018-08-14T07:56:14.247Z,19.86
2018-08-14T07:57:14.169Z,19.89
2018-08-14T07:58:14.105Z,20.07
2018-08-14T07:59:14.019Z,20.05
2018-08-14T08:00:13.944Z,20.00
2018-08-14T08:01:13.854Z,20.01
2018-08-14T08:02:13.765Z,20.01
2018-08-14T08:04:55.587Z,20.12
2018-08-14T08:05:55.569Z,20.22
2018-08-14T08:06:55.424Z,20.30
2018-08-14T08:07:55.377Z,20.35
2018-08-14T08:08:55.289Z,20.34
2018-08-14T08:09:55.218Z,20.35
2018-08-14T08:10:55.124Z,20.41
2018-08-14T08:11:55.082Z,20.54
2018-08-14T08:12:54.966Z,20.50
2018-08-14T08:13:54.907Z,20.61
2018-08-14T08:14:54.792Z,20.57
2018-08-14T08:15:54.741Z,20.60
2018-08-14T08:16:54.660Z,20.72
2018-08-14T08:17:54.587Z,20.73
2018-08-14T08:18:54.528Z,20.66
2018-08-14T08:19:54.441Z,20.53
2018-08-14T08:20:54.331Z,20.61
2018-08-14T08:21:54.276Z,20.60
2018-08-14T08:22:54.171Z,20.53
2018-08-14T08:23:55.139Z,20.42
2018-08-14T08:24:54.022Z,20.46
2018-08-14T08:25:53.990Z,20.44
2018-08-14T08:26:53.898Z,20.35
2018-08-14T08:27:53.809Z,20.42
2018-08-14T08:28:53.742Z,20.35
2018-08-14T08:29:53.637Z,20.19
2018-08-14T08:30:53.551Z,20.37
2018-08-14T08:33:35.609Z,20.34
2018-08-14T08:34:35.540Z,20.31
2018-08-14T08:35:35.437Z,20.44
2018-08-14T08:36:35.380Z,20.57
2018-08-14T08:37:35.301Z,20.61
2018-08-14T08:38:35.273Z,20.83
2018-08-14T08:39:35.168Z,20.97
2018-08-14T08:40:35.062Z,21.15
2018-08-14T08:41:34.969Z,21.53
2018-08-14T08:42:34.900Z,21.63
2018-08-14T08:43:34.811Z,21.91
2018-08-14T08:44:35.761Z,21.90
2018-08-14T08:45:34.666Z,22.09
2018-08-14T08:46:34.590Z,22.11
2018-08-14T08:47:34.491Z,22.20
2018-08-14T08:48:34.442Z,22.05
2018-08-14T08:49:34.375Z,22.08
2018-08-14T08:50:34.263Z,21.89
2018-08-14T08:51:34.222Z,21.86
2018-08-14T08:52:34.130Z,21.77
2018-08-14T08:53:34.056Z,21.89
2018-08-14T08:54:34.984Z,21.56
2018-08-14T08:55:33.912Z,21.48
2018-08-14T08:56:33.825Z,21.51
2018-08-14T08:57:33.719Z,21.40
2018-08-14T08:58:35.672Z,21.38
2018-08-14T08:59:33.608Z,21.64
2018-08-14T09:02:15.680Z,21.53
2018-08-14T09:03:15.534Z,21.43
2018-08-14T09:04:15.468Z,21.36
2018-08-14T09:06:57.612Z,21.15
2018-08-14T09:07:57.542Z,21.03
2018-08-14T09:08:57.503Z,21.13
2018-08-14T09:09:57.511Z,21.12
2018-08-14T09:10:57.293Z,21.13
2018-08-14T09:13:39.609Z,20.98
2018-08-14T09:14:40.576Z,21.03
2018-08-14T09:15:39.447Z,20.85
2018-08-14T09:18:21.615Z,20.78
2018-08-14T09:19:21.544Z,20.82
2018-08-14T09:20:21.473Z,20.75
2018-08-14T09:21:21.394Z,20.73
2018-08-14T09:22:21.310Z,20.76
2018-08-14T09:23:21.219Z,20.83
2018-08-14T09:24:21.165Z,20.88
2018-08-14T09:25:21.116Z,20.90
2018-08-14T09:26:20.992Z,20.96
2018-08-14T09:27:20.915Z,20.96
2018-08-14T09:28:20.939Z,20.96
2018-08-14T09:29:20.792Z,20.97
2018-08-14T09:30:20.698Z,21.01
2018-08-14T09:31:21.628Z,21.13
2018-08-14T09:32:20.533Z,21.16
2018-08-14T09:33:20.502Z,21.36
2018-08-14T09:34:20.367Z,21.49
2018-08-14T09:35:20.281Z,21.53
2018-08-14T09:36:20.219Z,21.37
2018-08-14T09:37:20.153Z,21.40
2018-08-14T09:38:20.075Z,21.22
2018-08-14T09:41:02.175Z,21.33
2018-08-14T09:43:44.156Z,21.52
2018-08-14T09:44:44.074Z,22.01
2018-08-14T09:45:43.965Z,22.26
2018-08-14T09:46:43.906Z,22.48
2018-08-14T09:47:43.804Z,22.45
2018-08-14T09:48:44.756Z,23.14
2018-08-14T09:49:43.694Z,24.59
2018-08-14T09:50:43.574Z,25.59
2018-08-14T09:51:43.525Z,25.05
2018-08-14T09:52:43.443Z,24.74
2018-08-14T09:53:43.375Z,24.61
2018-08-14T09:54:43.269Z,24.84
2018-08-14T09:55:43.191Z,24.77
2018-08-14T09:56:43.130Z,24.37
2018-08-14T09:57:43.044Z,24.59
2018-08-14T09:58:42.998Z,24.12
2018-08-14T09:59:42.917Z,23.94
2018-08-14T10:00:42.821Z,24.15
2018-08-14T10:01:42.804Z,23.86
2018-08-14T10:02:42.677Z,24.24
2018-08-14T10:03:42.606Z,24.18
2018-08-14T10:04:42.536Z,24.00
2018-08-14T10:05:42.440Z,23.77
2018-08-14T10:06:42.366Z,23.77
2018-08-14T10:07:42.293Z,23.99
2018-08-14T10:08:43.327Z,24.02
2018-08-14T10:09:42.150Z,23.62
2018-08-14T10:10:42.071Z,23.45
2018-08-14T10:11:41.993Z,23.14
2018-08-14T10:14:24.156Z,22.88
2018-08-14T10:15:24.086Z,22.81
2018-08-14T10:16:23.985Z,22.76
2018-08-14T10:17:23.932Z,22.93
2018-08-14T10:18:23.999Z,23.00
2018-08-14T10:19:23.770Z,23.29
2018-08-14T10:20:23.704Z,23.75
2018-08-14T10:21:23.623Z,24.61
2018-08-14T10:22:23.578Z,24.26
2018-08-14T10:23:23.571Z,24.04
2018-08-14T10:24:23.404Z,25.16
2018-08-14T10:25:23.329Z,25.14
2018-08-14T10:26:23.229Z,25.75
2018-08-14T10:27:23.152Z,26.20
2018-08-14T10:28:23.114Z,27.20
2018-08-14T10:29:23.041Z,27.24
2018-08-14T10:30:22.941Z,26.50
2018-08-14T10:31:22.870Z,25.63
2018-08-14T10:32:22.780Z,25.26
2018-08-14T10:33:22.724Z,25.31
2018-08-14T10:34:22.678Z,25.04
2018-08-14T10:35:22.600Z,24.44
2018-08-14T10:36:22.500Z,24.15
2018-08-14T10:37:22.428Z,24.09
2018-08-14T10:38:22.350Z,24.00
2018-08-14T10:39:23.308Z,23.79
2018-08-14T10:40:22.217Z,23.92
2018-08-14T10:41:22.141Z,23.71
2018-08-14T10:42:22.058Z,24.04
2018-08-14T10:43:21.997Z,24.84
2018-08-14T10:44:21.934Z,25.19
2018-08-14T10:47:04.160Z,24.06
2018-08-14T10:49:46.165Z,24.09
2018-08-14T10:52:28.138Z,23.96
2018-08-14T10:53:28.099Z,23.79
2018-08-14T10:54:28.024Z,23.71
2018-08-14T10:55:27.949Z,23.79
2018-08-14T10:56:27.854Z,23.97
2018-08-14T10:57:27.781Z,23.90
2018-08-14T10:58:27.721Z,24.02
2018-08-14T10:59:28.648Z,24.08
2018-08-14T11:00:27.551Z,24.41
2018-08-14T11:01:27.481Z,25.22
2018-08-14T11:02:27.415Z,25.45
2018-08-14T11:03:27.338Z,25.75
2018-08-14T11:04:27.326Z,27.15
2018-08-14T11:05:27.219Z,27.52
2018-08-14T11:06:27.114Z,27.71
2018-08-14T11:07:27.043Z,27.15
2018-08-14T11:08:26.965Z,26.71
2018-08-14T11:11:09.177Z,26.11
2018-08-14T11:13:51.164Z,24.70
2018-08-14T11:14:51.081Z,24.82
2018-08-14T11:15:51.039Z,24.53
2018-08-14T11:16:50.942Z,24.41
2018-08-14T11:17:50.857Z,24.48
2018-08-14T11:20:33.207Z,24.94
2018-08-14T11:21:33.182Z,25.17
2018-08-14T11:22:33.044Z,25.20
2018-08-14T11:23:32.964Z,25.53
2018-08-14T11:24:32.875Z,25.19
2018-08-14T11:25:32.815Z,24.90
2018-08-14T11:26:32.774Z,25.61
2018-08-14T11:27:32.671Z,26.04
2018-08-14T11:28:32.578Z,26.27
2018-08-14T11:29:32.520Z,26.21
2018-08-14T11:30:32.469Z,25.41
2018-08-14T11:31:32.383Z,24.94
2018-08-14T11:32:32.382Z,24.94
2018-08-14T11:33:32.224Z,25.53
2018-08-14T11:34:32.153Z,26.04
2018-08-14T11:35:32.119Z,26.28
2018-08-14T11:36:32.006Z,26.75
2018-08-14T11:37:31.960Z,27.33
2018-08-14T11:38:31.854Z,27.27
2018-08-14T11:39:31.802Z,26.27
2018-08-14T11:40:31.743Z,26.01
2018-08-14T11:41:31.696Z,25.85
2018-08-14T11:42:31.593Z,26.56
2018-08-14T11:43:31.510Z,26.88
2018-08-14T11:44:31.453Z,27.99
2018-08-14T11:45:31.381Z,28.03
2018-08-14T11:46:31.289Z,27.63
2018-08-14T11:47:31.266Z,27.55
2018-08-14T11:48:31.132Z,26.87
2018-08-14T11:49:31.077Z,26.66
2018-08-14T11:50:31.035Z,26.96
2018-08-14T11:53:13.196Z,26.53
2018-08-14T11:54:13.117Z,26.09
2018-08-14T11:55:13.036Z,26.97
2018-08-14T11:56:12.962Z,26.53
2018-08-14T11:57:12.905Z,26.39
2018-08-14T11:58:13.861Z,26.06
2018-08-14T11:59:12.747Z,25.72
2018-08-14T12:00:12.682Z,25.49
2018-08-14T12:01:12.610Z,25.60
2018-08-14T12:03:54.700Z,26.94
2018-08-14T12:04:54.607Z,26.68
2018-08-14T12:05:54.549Z,26.53
2018-08-14T12:08:36.703Z,27.83
2018-08-14T12:09:36.638Z,27.66
2018-08-14T12:10:36.535Z,27.34
2018-08-14T12:11:36.472Z,26.60
2018-08-14T12:12:36.400Z,26.20
2018-08-14T12:13:36.530Z,26.69
2018-08-14T12:14:36.277Z,26.83
2018-08-14T12:15:36.234Z,26.38
2018-08-14T12:16:36.114Z,26.38
2018-08-14T12:17:36.053Z,26.68
2018-08-14T12:18:36.156Z,25.79
2018-08-14T12:21:18.211Z,25.69
2018-08-14T12:22:18.112Z,25.97
2018-08-14T12:23:18.040Z,26.09
2018-08-14T12:24:17.997Z,26.06
2018-08-14T12:25:17.884Z,25.82
2018-08-14T12:28:00.190Z,25.74
2018-08-14T12:29:01.173Z,25.82
2018-08-14T12:30:00.047Z,25.94
2018-08-14T12:30:59.996Z,26.20
2018-08-14T12:31:59.884Z,26.21
2018-08-14T12:32:59.843Z,26.46
2018-08-14T12:33:59.758Z,26.57
2018-08-14T12:36:41.718Z,26.91
2018-08-14T12:37:41.654Z,26.38
2018-08-14T12:38:41.556Z,25.94
2018-08-14T12:39:41.494Z,25.63
2018-08-14T12:40:41.417Z,25.31
2018-08-14T12:41:41.327Z,25.48
2018-08-14T12:42:41.248Z,25.44
2018-08-14T12:45:23.229Z,25.49
2018-08-14T12:48:05.193Z,25.45
2018-08-14T12:49:05.153Z,25.30
2018-08-14T12:50:05.072Z,25.20
2018-08-14T12:51:05.021Z,25.38
2018-08-14T12:52:04.913Z,25.56
2018-08-14T12:53:04.831Z,25.79
2018-08-14T12:54:04.798Z,25.93
2018-08-14T12:55:04.719Z,26.09
2018-08-14T12:56:04.610Z,26.17
2018-08-14T12:58:47.017Z,26.06
2018-08-14T12:59:47.169Z,25.72
2018-08-14T13:00:46.618Z,25.67
2018-08-14T13:01:46.604Z,25.49
2018-08-14T13:02:46.428Z,25.64
2018-08-14T13:05:28.724Z,25.49
2018-08-14T13:06:28.631Z,25.71
2018-08-14T13:07:28.554Z,25.83
2018-08-14T13:08:28.515Z,25.78
2018-08-14T13:09:28.394Z,25.74
2018-08-14T13:10:28.373Z,25.76
2018-08-14T13:11:28.260Z,25.76
2018-08-14T13:12:28.189Z,25.79
2018-08-14T13:13:28.098Z,25.76
2018-08-14T13:16:10.241Z,25.69
2018-08-14T13:17:10.138Z,25.72
2018-08-14T13:18:10.057Z,25.90
2018-08-14T13:19:09.982Z,25.89
2018-08-14T13:20:09.928Z,25.90
2018-08-14T13:21:09.872Z,25.91
2018-08-14T13:22:09.784Z,26.06
2018-08-14T13:23:09.686Z,26.19
2018-08-14T13:24:09.608Z,26.19
2018-08-14T13:25:09.553Z,26.29
2018-08-14T13:26:09.457Z,26.36
2018-08-14T13:27:09.401Z,26.23
2018-08-14T13:28:09.305Z,26.34
2018-08-14T13:29:09.267Z,26.64
2018-08-14T13:30:09.159Z,26.76
2018-08-14T13:31:09.084Z,26.83
2018-08-14T13:32:09.070Z,26.68
2018-08-14T13:33:08.936Z,26.71
2018-08-14T13:34:08.864Z,26.24
2018-08-14T13:35:08.794Z,25.98
2018-08-14T13:36:08.716Z,25.91
2018-08-14T13:37:08.627Z,26.21
2018-08-14T13:38:08.598Z,26.47
2018-08-14T13:39:08.482Z,26.46
2018-08-14T13:40:08.463Z,26.56
2018-08-14T13:41:08.324Z,26.71
2018-08-14T13:42:08.300Z,26.81
2018-08-14T13:43:08.181Z,26.71
2018-08-14T13:44:08.114Z,26.73
2018-08-14T13:46:50.214Z,26.98
2018-08-14T13:47:51.465Z,27.27
2018-08-14T13:48:50.299Z,27.23
2018-08-14T13:49:50.315Z,27.31
2018-08-14T13:50:50.820Z,27.25
2018-08-14T13:51:49.848Z,26.90
2018-08-14T13:52:49.799Z,26.53
2018-08-14T13:53:49.716Z,26.39
2018-08-14T13:54:49.623Z,26.38
2018-08-14T13:55:49.539Z,26.20
2018-08-14T13:56:49.459Z,26.11
2018-08-14T13:57:49.403Z,26.08
2018-08-14T13:58:49.307Z,25.86
2018-08-14T13:59:49.263Z,25.75
2018-08-14T14:00:49.182Z,25.72
2018-08-14T14:01:49.116Z,25.91
2018-08-14T14:02:49.048Z,25.94
2018-08-14T14:05:31.214Z,25.91
2018-08-14T14:06:31.159Z,25.81
2018-08-14T14:07:31.065Z,25.61
2018-08-14T14:08:31.022Z,25.53
2018-08-14T14:09:30.933Z,25.76
2018-08-14T14:10:30.849Z,25.93
2018-08-14T14:11:30.762Z,26.19
2018-08-14T14:14:12.748Z,25.91
2018-08-14T14:16:54.712Z,26.06
2018-08-14T14:19:36.735Z,26.49
2018-08-14T14:20:36.681Z,26.69
2018-08-14T14:21:36.573Z,26.69
2018-08-14T14:22:36.507Z,26.75
2018-08-14T14:23:36.437Z,26.88
2018-08-14T14:24:36.395Z,26.87
2018-08-14T14:25:36.273Z,26.76
2018-08-14T14:26:36.203Z,26.81
2018-08-14T14:27:36.116Z,26.69
2018-08-14T14:28:36.047Z,26.60
2018-08-14T14:29:35.993Z,26.49
2018-08-14T14:30:35.918Z,26.19
2018-08-14T14:31:35.813Z,26.00
2018-08-14T14:32:35.748Z,25.89
2018-08-14T14:33:35.660Z,25.93
2018-08-14T14:34:35.650Z,26.01
2018-08-14T14:35:35.536Z,26.19
2018-08-14T14:36:35.473Z,26.36
2018-08-14T14:37:35.430Z,26.49
2018-08-14T14:38:36.340Z,26.53
2018-08-14T14:39:35.236Z,26.69
2018-08-14T14:40:35.155Z,26.72